sensor_id;sensor_type;location;lat;lon;timestamp;pressure;altitude;pressure_sealevel;temperature;humidity
14383;BME280;7275;50.328;8.720;2022-10-31T00:01:09;100177.75;;;17.73;46.38
14383;BME280;7275;50.328;8.720;2022-10-31T00:03:37;100183.97;;;17.74;46.42
14383;BME280;7275;50.328;8.720;2022-10-31T00:06:04;100185.69;;;17.75;46.39
14383;BME280;7275;50.328;8.720;2022-10-31T00:08:32;100182.16;;;17.74;46.56
14383;BME280;7275;50.328;8.720;2022-10-31T00:11:01;100183.03;;;17.75;46.42
14383;BME280;7275;50.328;8.720;2022-10-31T00:13:28;100186.47;;;17.77;46.34
14383;BME280;7275;50.328;8.720;2022-10-31T00:15:56;100188.19;;;17.78;46.39
14383;BME280;7275;50.328;8.720;2022-10-31T00:18:23;100184.56;;;17.79;46.07
14383;BME280;7275;50.328;8.720;2022-10-31T00:20:58;100198.09;;;17.76;46.12
14383;BME280;7275;50.328;8.720;2022-10-31T00:23:26;100188.63;;;17.70;46.25
14383;BME280;7275;50.328;8.720;2022-10-31T00:25:54;100197.78;;;17.66;46.23
14383;BME280;7275;50.328;8.720;2022-10-31T00:28:22;100199.78;;;17.63;46.08
14383;BME280;7275;50.328;8.720;2022-10-31T00:30:50;100202.63;;;17.60;46.22
14383;BME280;7275;50.328;8.720;2022-10-31T00:33:17;100206.53;;;17.54;46.37
14383;BME280;7275;50.328;8.720;2022-10-31T00:35:49;100205.00;;;17.50;46.69
14383;BME280;7275;50.328;8.720;2022-10-31T00:38:16;100208.66;;;17.47;46.79
14383;BME280;7275;50.328;8.720;2022-10-31T00:40:44;100201.66;;;17.45;46.75
14383;BME280;7275;50.328;8.720;2022-10-31T00:43:11;100207.94;;;17.44;47.00
14383;BME280;7275;50.328;8.720;2022-10-31T00:45:41;100209.00;;;17.41;47.17
14383;BME280;7275;50.328;8.720;2022-10-31T00:48:08;100208.03;;;17.42;47.44
14383;BME280;7275;50.328;8.720;2022-10-31T00:50:36;100212.38;;;17.45;47.61
14383;BME280;7275;50.328;8.720;2022-10-31T00:53:03;100208.56;;;17.49;47.53
14383;BME280;7275;50.328;8.720;2022-10-31T00:55:31;100208.44;;;17.52;47.61
14383;BME280;7275;50.328;8.720;2022-10-31T00:57:59;100211.69;;;17.57;47.81
14383;BME280;7275;50.328;8.720;2022-10-31T01:00:27;100205.97;;;17.63;47.51
14383;BME280;7275;50.328;8.720;2022-10-31T01:02:56;100207.47;;;17.69;47.46
14383;BME280;7275;50.328;8.720;2022-10-31T01:05:24;100214.41;;;17.71;47.25
14383;BME280;7275;50.328;8.720;2022-10-31T01:07:51;100220.53;;;17.73;47.14
14383;BME280;7275;50.328;8.720;2022-10-31T01:10:19;100216.00;;;17.75;46.97
14383;BME280;7275;50.328;8.720;2022-10-31T01:12:47;100206.06;;;17.77;46.79
14383;BME280;7275;50.328;8.720;2022-10-31T01:15:17;100201.56;;;17.78;46.80
14383;BME280;7275;50.328;8.720;2022-10-31T01:17:44;100199.75;;;17.78;46.92
14383;BME280;7275;50.328;8.720;2022-10-31T01:20:14;100200.72;;;17.77;46.83
14383;BME280;7275;50.328;8.720;2022-10-31T01:22:42;100205.97;;;17.79;46.75
14383;BME280;7275;50.328;8.720;2022-10-31T01:25:10;100204.31;;;17.76;46.79
14383;BME280;7275;50.328;8.720;2022-10-31T01:27:38;100210.72;;;17.74;46.69
14383;BME280;7275;50.328;8.720;2022-10-31T01:30:06;100206.38;;;17.71;46.73
14383;BME280;7275;50.328;8.720;2022-10-31T01:32:33;100202.19;;;17.67;46.70
14383;BME280;7275;50.328;8.720;2022-10-31T01:35:01;100208.66;;;17.63;46.76
14383;BME280;7275;50.328;8.720;2022-10-31T01:37:31;100207.88;;;17.61;47.03
14383;BME280;7275;50.328;8.720;2022-10-31T01:39:59;100203.50;;;17.60;46.98
14383;BME280;7275;50.328;8.720;2022-10-31T01:42:26;100200.81;;;17.60;46.80
14383;BME280;7275;50.328;8.720;2022-10-31T01:44:57;100202.63;;;17.60;46.83
14383;BME280;7275;50.328;8.720;2022-10-31T01:47:35;100191.25;;;17.56;46.63
14383;BME280;7275;50.328;8.720;2022-10-31T01:50:12;100189.72;;;17.52;46.69
14383;BME280;7275;50.328;8.720;2022-10-31T01:52:43;100192.41;;;17.52;46.74
14383;BME280;7275;50.328;8.720;2022-10-31T01:55:15;100187.09;;;17.50;46.84
14383;BME280;7275;50.328;8.720;2022-10-31T01:57:47;100189.94;;;17.47;46.89
14383;BME280;7275;50.328;8.720;2022-10-31T02:00:16;100184.84;;;17.43;46.62
14383;BME280;7275;50.328;8.720;2022-10-31T02:02:45;100196.69;;;17.39;46.90
14383;BME280;7275;50.328;8.720;2022-10-31T02:05:16;100192.38;;;17.36;46.94
14383;BME280;7275;50.328;8.720;2022-10-31T02:07:53;100191.59;;;17.34;46.67
14383;BME280;7275;50.328;8.720;2022-10-31T02:10:23;100198.84;;;17.32;46.92
14383;BME280;7275;50.328;8.720;2022-10-31T02:12:51;100188.31;;;17.29;46.88
14383;BME280;7275;50.328;8.720;2022-10-31T02:15:20;100195.53;;;17.27;46.82
14383;BME280;7275;50.328;8.720;2022-10-31T02:17:48;100194.72;;;17.27;46.96
14383;BME280;7275;50.328;8.720;2022-10-31T02:20:17;100191.25;;;17.25;47.12
14383;BME280;7275;50.328;8.720;2022-10-31T02:23:08;100191.31;;;17.23;46.98
14383;BME280;7275;50.328;8.720;2022-10-31T02:26:03;100178.06;;;17.22;46.97
14383;BME280;7275;50.328;8.720;2022-10-31T02:28:51;100183.41;;;17.22;47.03
14383;BME280;7275;50.328;8.720;2022-10-31T02:31:29;100179.81;;;17.23;47.03
14383;BME280;7275;50.328;8.720;2022-10-31T02:34:06;100174.38;;;17.24;47.02
14383;BME280;7275;50.328;8.720;2022-10-31T02:36:41;100177.03;;;17.24;46.81
14383;BME280;7275;50.328;8.720;2022-10-31T02:39:13;100177.03;;;17.24;46.94
14383;BME280;7275;50.328;8.720;2022-10-31T02:41:48;100184.19;;;17.24;46.97
14383;BME280;7275;50.328;8.720;2022-10-31T02:44:24;100184.09;;;17.25;47.01
14383;BME280;7275;50.328;8.720;2022-10-31T02:46:59;100185.81;;;17.26;46.95
14383;BME280;7275;50.328;8.720;2022-10-31T02:49:36;100181.34;;;17.27;46.95
14383;BME280;7275;50.328;8.720;2022-10-31T02:52:14;100182.28;;;17.26;47.26
14383;BME280;7275;50.328;8.720;2022-10-31T02:54:42;100175.22;;;17.25;47.12
14383;BME280;7275;50.328;8.720;2022-10-31T02:57:10;100183.25;;;17.25;47.32
14383;BME280;7275;50.328;8.720;2022-10-31T02:59:41;100183.16;;;17.26;47.27
14383;BME280;7275;50.328;8.720;2022-10-31T03:02:24;100184.09;;;17.25;47.39
14383;BME280;7275;50.328;8.720;2022-10-31T03:05:06;100177.81;;;17.26;47.05
14383;BME280;7275;50.328;8.720;2022-10-31T03:07:42;100177.81;;;17.26;47.08
14383;BME280;7275;50.328;8.720;2022-10-31T03:10:17;100179.69;;;17.24;47.19
14383;BME280;7275;50.328;8.720;2022-10-31T03:12:54;100181.69;;;17.21;47.43
14383;BME280;7275;50.328;8.720;2022-10-31T03:15:29;100173.75;;;17.19;47.53
14383;BME280;7275;50.328;8.720;2022-10-31T03:18:02;100182.63;;;17.20;47.45
14383;BME280;7275;50.328;8.720;2022-10-31T03:20:36;100189.78;;;17.19;47.69
14383;BME280;7275;50.328;8.720;2022-10-31T03:23:06;100186.19;;;17.20;47.61
14383;BME280;7275;50.328;8.720;2022-10-31T03:25:36;100185.31;;;17.20;47.65
14383;BME280;7275;50.328;8.720;2022-10-31T03:28:05;100184.38;;;17.21;47.67
14383;BME280;7275;50.328;8.720;2022-10-31T03:30:36;100184.38;;;17.21;47.58
14383;BME280;7275;50.328;8.720;2022-10-31T03:33:10;100188.94;;;17.19;47.60
14383;BME280;7275;50.328;8.720;2022-10-31T03:35:42;100187.19;;;17.18;47.58
14383;BME280;7275;50.328;8.720;2022-10-31T03:38:13;100183.75;;;17.16;47.46
14383;BME280;7275;50.328;8.720;2022-10-31T03:40:43;100179.44;;;17.13;47.49
14383;BME280;7275;50.328;8.720;2022-10-31T03:43:16;100176.97;;;17.10;47.70
14383;BME280;7275;50.328;8.720;2022-10-31T03:45:45;100177.91;;;17.09;47.61
14383;BME280;7275;50.328;8.720;2022-10-31T03:48:16;100173.50;;;17.08;47.73
14383;BME280;7275;50.328;8.720;2022-10-31T03:50:49;100171.69;;;17.09;47.81
14383;BME280;7275;50.328;8.720;2022-10-31T03:53:24;100169.88;;;17.09;47.59
14383;BME280;7275;50.328;8.720;2022-10-31T03:55:57;100171.69;;;17.09;47.40
14383;BME280;7275;50.328;8.720;2022-10-31T03:58:28;100169.97;;;17.08;47.15
14383;BME280;7275;50.328;8.720;2022-10-31T04:01:00;100177.22;;;17.06;47.46
14383;BME280;7275;50.328;8.720;2022-10-31T04:03:32;100172.81;;;17.05;47.43
14383;BME280;7275;50.328;8.720;2022-10-31T04:06:05;100175.66;;;17.02;47.46
14383;BME280;7275;50.328;8.720;2022-10-31T04:08:38;100171.25;;;17.01;47.42
14383;BME280;7275;50.328;8.720;2022-10-31T04:11:08;100164.19;;;17.00;47.38
14383;BME280;7275;50.328;8.720;2022-10-31T04:13:37;100169.53;;;17.00;47.40
14383;BME280;7275;50.328;8.720;2022-10-31T04:16:07;100165.13;;;16.99;47.45
14383;BME280;7275;50.328;8.720;2022-10-31T04:18:43;100166.16;;;16.96;47.47
14383;BME280;7275;50.328;8.720;2022-10-31T04:21:11;100174.38;;;16.93;47.34
14383;BME280;7275;50.328;8.720;2022-10-31T04:23:38;100166.50;;;16.90;47.55
14383;BME280;7275;50.328;8.720;2022-10-31T04:26:06;100164.84;;;16.88;47.36
14383;BME280;7275;50.328;8.720;2022-10-31T04:28:33;100169.44;;;16.86;47.28
14383;BME280;7275;50.328;8.720;2022-10-31T04:31:01;100175.06;;;16.81;47.33
14383;BME280;7275;50.328;8.720;2022-10-31T04:33:28;100172.53;;;16.78;47.33
14383;BME280;7275;50.328;8.720;2022-10-31T04:35:57;100176.22;;;16.75;47.54
14383;BME280;7275;50.328;8.720;2022-10-31T04:38:24;100185.19;;;16.74;47.37
14383;BME280;7275;50.328;8.720;2022-10-31T04:40:52;100188.78;;;16.73;47.45
14383;BME280;7275;50.328;8.720;2022-10-31T04:43:19;100188.78;;;16.73;47.71
14383;BME280;7275;50.328;8.720;2022-10-31T04:45:47;100184.44;;;16.72;47.68
14383;BME280;7275;50.328;8.720;2022-10-31T04:48:15;100185.34;;;16.71;47.38
14383;BME280;7275;50.328;8.720;2022-10-31T04:50:42;100187.16;;;16.71;47.55
14383;BME280;7275;50.328;8.720;2022-10-31T04:53:11;100189.81;;;16.71;47.32
14383;BME280;7275;50.328;8.720;2022-10-31T04:55:39;100189.81;;;16.71;47.41
14383;BME280;7275;50.328;8.720;2022-10-31T04:58:06;100189.75;;;16.72;47.63
14383;BME280;7275;50.328;8.720;2022-10-31T05:00:34;100194.22;;;16.72;47.61
14383;BME280;7275;50.328;8.720;2022-10-31T05:03:01;100188.03;;;16.71;47.65
14383;BME280;7275;50.328;8.720;2022-10-31T05:05:30;100188.13;;;16.70;47.81
14383;BME280;7275;50.328;8.720;2022-10-31T05:07:58;100192.50;;;16.71;47.85
14383;BME280;7275;50.328;8.720;2022-10-31T05:10:29;100187.09;;;16.72;47.70
14383;BME280;7275;50.328;8.720;2022-10-31T05:12:58;100190.69;;;16.71;47.67
14383;BME280;7275;50.328;8.720;2022-10-31T05:15:28;100189.81;;;16.71;47.72
14383;BME280;7275;50.328;8.720;2022-10-31T05:17:56;100186.22;;;16.72;47.72
14383;BME280;7275;50.328;8.720;2022-10-31T05:20:26;100182.59;;;16.73;47.81
14383;BME280;7275;50.328;8.720;2022-10-31T05:22:56;100179.00;;;16.74;47.99
14383;BME280;7275;50.328;8.720;2022-10-31T05:25:25;100179.09;;;16.72;47.96
14383;BME280;7275;50.328;8.720;2022-10-31T05:27:55;100178.22;;;16.72;47.99
14383;BME280;7275;50.328;8.720;2022-10-31T05:30:24;100167.63;;;16.70;48.35
14383;BME280;7275;50.328;8.720;2022-10-31T05:32:53;100171.31;;;16.68;48.28
14383;BME280;7275;50.328;8.720;2022-10-31T05:35:23;100166.75;;;16.70;48.50
14383;BME280;7275;50.328;8.720;2022-10-31T05:37:51;100162.34;;;16.69;48.52
14383;BME280;7275;50.328;8.720;2022-10-31T05:40:19;100161.56;;;16.67;48.46
14383;BME280;7275;50.328;8.720;2022-10-31T05:42:50;100166.91;;;16.67;48.63
14383;BME280;7275;50.328;8.720;2022-10-31T05:45:20;100163.47;;;16.65;48.63
14383;BME280;7275;50.328;8.720;2022-10-31T05:47:52;100171.41;;;16.66;48.59
14383;BME280;7275;50.328;8.720;2022-10-31T05:50:20;100165.19;;;16.66;48.62
14383;BME280;7275;50.328;8.720;2022-10-31T05:52:54;100164.19;;;16.68;48.66
14383;BME280;7275;50.328;8.720;2022-10-31T05:55:22;100156.94;;;16.70;48.59
14383;BME280;7275;50.328;8.720;2022-10-31T05:57:49;100162.09;;;16.73;48.60
14383;BME280;7275;50.328;8.720;2022-10-31T06:00:17;100160.22;;;16.75;48.59
14383;BME280;7275;50.328;8.720;2022-10-31T06:02:46;100158.31;;;16.77;48.46
14383;BME280;7275;50.328;8.720;2022-10-31T06:05:14;100152.28;;;16.74;48.38
14383;BME280;7275;50.328;8.720;2022-10-31T06:07:42;100162.19;;;16.72;48.51
14383;BME280;7275;50.328;8.720;2022-10-31T06:10:10;100150.84;;;16.68;48.65
14383;BME280;7275;50.328;8.720;2022-10-31T06:12:37;100151.84;;;16.66;48.47
14383;BME280;7275;50.328;8.720;2022-10-31T06:15:08;100159.78;;;16.67;48.55
14383;BME280;7275;50.328;8.720;2022-10-31T06:17:36;100154.44;;;16.67;48.60
14383;BME280;7275;50.328;8.720;2022-10-31T06:20:06;100148.16;;;16.68;48.64
14383;BME280;7275;50.328;8.720;2022-10-31T06:22:34;100150.75;;;16.70;48.45
14383;BME280;7275;50.328;8.720;2022-10-31T06:25:01;100156.75;;;16.73;48.38
14383;BME280;7275;50.328;8.720;2022-10-31T06:27:29;100165.53;;;16.75;48.48
14383;BME280;7275;50.328;8.720;2022-10-31T06:29:56;100163.75;;;16.76;48.44
14383;BME280;7275;50.328;8.720;2022-10-31T06:32:24;100164.63;;;16.76;48.61
14383;BME280;7275;50.328;8.720;2022-10-31T06:34:51;100165.47;;;16.77;48.43
14383;BME280;7275;50.328;8.720;2022-10-31T06:37:20;100163.66;;;16.77;48.61
14383;BME280;7275;50.328;8.720;2022-10-31T06:39:47;100169.78;;;16.79;48.60
14383;BME280;7275;50.328;8.720;2022-10-31T06:42:15;100164.19;;;16.84;48.61
14383;BME280;7275;50.328;8.720;2022-10-31T06:44:43;100164.84;;;16.88;48.65
14383;BME280;7275;50.328;8.720;2022-10-31T06:47:10;100171.59;;;16.95;48.67
14383;BME280;7275;50.328;8.720;2022-10-31T06:49:38;100165.03;;;17.00;48.67
14383;BME280;7275;50.328;8.720;2022-10-31T06:52:05;100167.31;;;17.08;48.65
14383;BME280;7275;50.328;8.720;2022-10-31T06:54:34;100173.06;;;17.16;48.88
14383;BME280;7275;50.328;8.720;2022-10-31T06:57:02;100178.94;;;17.22;48.96
14383;BME280;7275;50.328;8.720;2022-10-31T06:59:29;100182.13;;;17.29;48.96
14383;BME280;7275;50.328;8.720;2022-10-31T07:01:57;100177.09;;;17.38;49.07
14383;BME280;7275;50.328;8.720;2022-10-31T07:04:25;100181.94;;;17.47;49.17
14383;BME280;7275;50.328;8.720;2022-10-31T07:06:52;100178.66;;;17.58;49.21
14383;BME280;7275;50.328;8.720;2022-10-31T07:09:20;100183.56;;;17.66;49.17
14383;BME280;7275;50.328;8.720;2022-10-31T07:11:51;100186.63;;;17.74;49.15
14383;BME280;7275;50.328;8.720;2022-10-31T07:14:19;100185.34;;;17.81;49.09
14383;BME280;7275;50.328;8.720;2022-10-31T07:16:48;100185.84;;;17.87;49.19
14383;BME280;7275;50.328;8.720;2022-10-31T07:19:16;100186.34;;;17.94;49.34
14383;BME280;7275;50.328;8.720;2022-10-31T07:21:44;100193.03;;;18.01;49.31
14383;BME280;7275;50.328;8.720;2022-10-31T07:24:11;100187.25;;;18.08;49.24
14383;BME280;7275;50.328;8.720;2022-10-31T07:26:38;100184.19;;;18.14;49.11
14383;BME280;7275;50.328;8.720;2022-10-31T07:29:07;100185.63;;;18.20;48.94
14383;BME280;7275;50.328;8.720;2022-10-31T07:31:35;100191.75;;;18.22;49.12
14383;BME280;7275;50.328;8.720;2022-10-31T07:34:03;100192.22;;;18.28;48.99
14383;BME280;7275;50.328;8.720;2022-10-31T07:36:30;100182.88;;;18.35;48.99
14383;BME280;7275;50.328;8.720;2022-10-31T07:38:57;100184.13;;;18.44;49.10
14383;BME280;7275;50.328;8.720;2022-10-31T07:41:25;100180.13;;;18.51;49.33
14383;BME280;7275;50.328;8.720;2022-10-31T07:43:53;100181.22;;;18.63;49.44
14383;BME280;7275;50.328;8.720;2022-10-31T07:46:22;100177.66;;;18.76;49.47
14383;BME280;7275;50.328;8.720;2022-10-31T07:48:50;100178.69;;;18.88;49.54
14383;BME280;7275;50.328;8.720;2022-10-31T07:51:17;100173.41;;;19.00;49.67
14383;BME280;7275;50.328;8.720;2022-10-31T07:53:45;100175.97;;;19.16;49.60
14383;BME280;7275;50.328;8.720;2022-10-31T07:56:12;100169.50;;;19.33;49.62
14383;BME280;7275;50.328;8.720;2022-10-31T07:58:40;100167.47;;;19.50;49.67
14383;BME280;7275;50.328;8.720;2022-10-31T08:01:07;100169.56;;;19.72;49.78
14383;BME280;7275;50.328;8.720;2022-10-31T08:03:36;100174.78;;;20.00;49.76
14383;BME280;7275;50.328;8.720;2022-10-31T08:06:04;100177.00;;;20.33;49.47
14383;BME280;7275;50.328;8.720;2022-10-31T08:08:31;100179.56;;;20.72;49.31
14383;BME280;7275;50.328;8.720;2022-10-31T08:11:03;100168.66;;;21.11;48.64
14383;BME280;7275;50.328;8.720;2022-10-31T08:13:31;100165.34;;;21.55;48.17
14383;BME280;7275;50.328;8.720;2022-10-31T08:15:58;100164.13;;;22.06;47.67
14383;BME280;7275;50.328;8.720;2022-10-31T08:18:30;100165.34;;;22.59;46.90
14383;BME280;7275;50.328;8.720;2022-10-31T08:20:59;100162.88;;;23.12;46.34
14383;BME280;7275;50.328;8.720;2022-10-31T08:23:26;100158.16;;;23.47;45.93
14383;BME280;7275;50.328;8.720;2022-10-31T08:25:54;100153.22;;;23.63;45.93
14383;BME280;7275;50.328;8.720;2022-10-31T08:28:21;100157.38;;;23.67;45.81
14383;BME280;7275;50.328;8.720;2022-10-31T08:30:49;100162.25;;;23.73;45.95
14383;BME280;7275;50.328;8.720;2022-10-31T08:33:17;100154.56;;;23.89;46.40
14383;BME280;7275;50.328;8.720;2022-10-31T08:35:45;100144.28;;;24.15;46.38
14383;BME280;7275;50.328;8.720;2022-10-31T08:38:15;100144.50;;;24.53;46.45
14383;BME280;7275;50.328;8.720;2022-10-31T08:40:42;100139.31;;;25.01;46.37
14383;BME280;7275;50.328;8.720;2022-10-31T08:43:12;100137.31;;;25.62;45.75
14383;BME280;7275;50.328;8.720;2022-10-31T08:45:40;100128.91;;;26.22;45.51
14383;BME280;7275;50.328;8.720;2022-10-31T08:48:10;100130.69;;;26.87;44.83
14383;BME280;7275;50.328;8.720;2022-10-31T08:50:39;100133.50;;;27.49;44.36
14383;BME280;7275;50.328;8.720;2022-10-31T08:53:09;100129.72;;;28.21;43.46
14383;BME280;7275;50.328;8.720;2022-10-31T08:55:40;100125.56;;;28.86;43.01
14383;BME280;7275;50.328;8.720;2022-10-31T08:58:10;100125.81;;;29.50;42.34
14383;BME280;7275;50.328;8.720;2022-10-31T09:00:38;100122.81;;;30.10;41.27
14383;BME280;7275;50.328;8.720;2022-10-31T09:03:08;100126.19;;;30.60;40.93
14383;BME280;7275;50.328;8.720;2022-10-31T09:05:36;100121.56;;;31.15;39.74
14383;BME280;7275;50.328;8.720;2022-10-31T09:08:04;100119.91;;;31.68;39.28
14383;BME280;7275;50.328;8.720;2022-10-31T09:10:40;100124.06;;;32.23;38.47
14383;BME280;7275;50.328;8.720;2022-10-31T09:13:11;100121.63;;;32.80;37.93
14383;BME280;7275;50.328;8.720;2022-10-31T09:15:40;100121.88;;;33.29;37.21
14383;BME280;7275;50.328;8.720;2022-10-31T09:18:09;100116.00;;;33.68;36.51
14383;BME280;7275;50.328;8.720;2022-10-31T09:20:41;100112.38;;;34.03;36.16
14383;BME280;7275;50.328;8.720;2022-10-31T09:23:11;100117.47;;;34.34;35.31
14383;BME280;7275;50.328;8.720;2022-10-31T09:25:41;100111.00;;;34.69;35.18
14383;BME280;7275;50.328;8.720;2022-10-31T09:28:17;100091.38;;;35.06;34.87
14383;BME280;7275;50.328;8.720;2022-10-31T09:30:46;100106.72;;;35.42;33.63
14383;BME280;7275;50.328;8.720;2022-10-31T09:33:14;100096.03;;;35.73;33.39
14383;BME280;7275;50.328;8.720;2022-10-31T09:35:42;100104.75;;;35.96;33.45
14383;BME280;7275;50.328;8.720;2022-10-31T09:38:11;100105.19;;;36.26;32.75
14383;BME280;7275;50.328;8.720;2022-10-31T09:40:43;100094.16;;;36.45;32.20
14383;BME280;7275;50.328;8.720;2022-10-31T09:43:15;100098.63;;;36.53;31.99
14383;BME280;7275;50.328;8.720;2022-10-31T09:45:53;100103.25;;;36.65;31.80
14383;BME280;7275;50.328;8.720;2022-10-31T09:48:31;100104.72;;;36.74;31.48
14383;BME280;7275;50.328;8.720;2022-10-31T09:51:04;100107.25;;;36.76;31.30
14383;BME280;7275;50.328;8.720;2022-10-31T09:53:37;100095.19;;;36.70;31.23
14383;BME280;7275;50.328;8.720;2022-10-31T09:56:11;100091.00;;;36.48;30.75
14383;BME280;7275;50.328;8.720;2022-10-31T09:58:43;100093.31;;;36.25;30.93
14383;BME280;7275;50.328;8.720;2022-10-31T10:01:28;100086.53;;;36.01;31.22
14383;BME280;7275;50.328;8.720;2022-10-31T10:04:01;100092.44;;;35.79;30.96
14383;BME280;7275;50.328;8.720;2022-10-31T10:06:33;100089.22;;;35.62;30.91
14383;BME280;7275;50.328;8.720;2022-10-31T10:09:02;100082.66;;;35.57;30.66
14383;BME280;7275;50.328;8.720;2022-10-31T10:11:46;100075.66;;;35.48;31.42
14383;BME280;7275;50.328;8.720;2022-10-31T10:14:35;100079.81;;;35.37;31.59
14383;BME280;7275;50.328;8.720;2022-10-31T10:17:17;100077.88;;;35.24;31.46
14383;BME280;7275;50.328;8.720;2022-10-31T10:20:12;100083.75;;;35.08;31.59
14383;BME280;7275;50.328;8.720;2022-10-31T10:22:50;100081.81;;;35.02;31.15
14383;BME280;7275;50.328;8.720;2022-10-31T10:25:22;100078.63;;;34.99;31.45
14383;BME280;7275;50.328;8.720;2022-10-31T10:27:59;100069.69;;;34.97;31.09
14383;BME280;7275;50.328;8.720;2022-10-31T10:30:35;100078.22;;;35.02;31.71
14383;BME280;7275;50.328;8.720;2022-10-31T10:33:11;100074.00;;;35.06;31.29
14383;BME280;7275;50.328;8.720;2022-10-31T10:35:42;100073.75;;;35.01;31.29
14383;BME280;7275;50.328;8.720;2022-10-31T10:38:17;100070.94;;;34.88;30.70
14383;BME280;7275;50.328;8.720;2022-10-31T10:40:47;100072.94;;;34.66;31.02
14383;BME280;7275;50.328;8.720;2022-10-31T10:43:23;100059.25;;;34.45;31.50
14383;BME280;7275;50.328;8.720;2022-10-31T10:46:04;100065.72;;;34.31;30.88
14383;BME280;7275;50.328;8.720;2022-10-31T10:48:56;100058.44;;;34.17;31.30
14383;BME280;7275;50.328;8.720;2022-10-31T10:51:30;100055.63;;;34.10;31.54
14383;BME280;7275;50.328;8.720;2022-10-31T10:54:38;100050.47;;;34.01;31.72
14383;BME280;7275;50.328;8.720;2022-10-31T10:57:13;100052.41;;;34.00;31.46
14383;BME280;7275;50.328;8.720;2022-10-31T10:59:46;100059.09;;;33.98;31.49
14383;BME280;7275;50.328;8.720;2022-10-31T11:02:17;100044.66;;;33.89;30.95
14383;BME280;7275;50.328;8.720;2022-10-31T11:04:47;100046.75;;;33.87;31.34
14383;BME280;7275;50.328;8.720;2022-10-31T11:07:17;100043.81;;;33.89;31.26
14383;BME280;7275;50.328;8.720;2022-10-31T11:09:44;100035.34;;;33.83;30.83
14383;BME280;7275;50.328;8.720;2022-10-31T11:12:20;100031.88;;;33.75;31.00
14383;BME280;7275;50.328;8.720;2022-10-31T11:14:52;100036.25;;;33.69;31.20
14383;BME280;7275;50.328;8.720;2022-10-31T11:17:27;100037.56;;;33.73;31.06
14383;BME280;7275;50.328;8.720;2022-10-31T11:20:05;100025.34;;;33.76;31.21
14383;BME280;7275;50.328;8.720;2022-10-31T11:22:33;100024.03;;;33.72;31.23
14383;BME280;7275;50.328;8.720;2022-10-31T11:25:19;100013.91;;;33.72;30.90
14383;BME280;7275;50.328;8.720;2022-10-31T11:27:58;100013.91;;;33.72;30.41
14383;BME280;7275;50.328;8.720;2022-10-31T11:30:27;100008.72;;;33.84;30.88
14383;BME280;7275;50.328;8.720;2022-10-31T11:32:56;100006.75;;;33.99;30.20
14383;BME280;7275;50.328;8.720;2022-10-31T11:35:25;100009.19;;;34.15;30.08
14383;BME280;7275;50.328;8.720;2022-10-31T11:37:56;100001.00;;;34.22;29.94
14383;BME280;7275;50.328;8.720;2022-10-31T11:40:27;99989.38;;;34.20;29.71
14383;BME280;7275;50.328;8.720;2022-10-31T11:42:57;99984.09;;;34.18;30.18
14383;BME280;7275;50.328;8.720;2022-10-31T11:45:29;99983.38;;;34.03;30.15
14383;BME280;7275;50.328;8.720;2022-10-31T11:47:59;99974.00;;;33.98;29.98
14383;BME280;7275;50.328;8.720;2022-10-31T11:50:33;99972.31;;;33.97;30.33
14383;BME280;7275;50.328;8.720;2022-10-31T11:53:03;99971.78;;;34.08;29.62
14383;BME280;7275;50.328;8.720;2022-10-31T11:55:32;99978.88;;;34.30;29.46
14383;BME280;7275;50.328;8.720;2022-10-31T11:58:00;99974.94;;;34.39;29.90
14383;BME280;7275;50.328;8.720;2022-10-31T12:00:32;99966.16;;;34.50;29.93
14383;BME280;7275;50.328;8.720;2022-10-31T12:03:18;99965.31;;;34.56;29.40
14383;BME280;7275;50.328;8.720;2022-10-31T12:05:54;99961.75;;;34.62;29.52
14383;BME280;7275;50.328;8.720;2022-10-31T12:08:25;99957.53;;;34.66;29.35
14383;BME280;7275;50.328;8.720;2022-10-31T12:10:58;99952.50;;;34.76;29.06
14383;BME280;7275;50.328;8.720;2022-10-31T12:13:32;99940.28;;;34.85;28.94
14383;BME280;7275;50.328;8.720;2022-10-31T12:16:08;99947.28;;;34.94;28.81
14383;BME280;7275;50.328;8.720;2022-10-31T12:18:51;99941.00;;;35.07;28.88
14383;BME280;7275;50.328;8.720;2022-10-31T12:21:33;99937.84;;;35.16;29.26
14383;BME280;7275;50.328;8.720;2022-10-31T12:24:12;99929.16;;;35.26;28.54
14383;BME280;7275;50.328;8.720;2022-10-31T12:26:46;99926.22;;;35.27;28.38
14383;BME280;7275;50.328;8.720;2022-10-31T12:29:28;99917.75;;;35.35;28.71
14383;BME280;7275;50.328;8.720;2022-10-31T12:32:09;99924.34;;;35.48;28.01
14383;BME280;7275;50.328;8.720;2022-10-31T12:34:58;99920.97;;;35.52;28.24
14383;BME280;7275;50.328;8.720;2022-10-31T12:37:43;99923.69;;;35.72;28.25
14383;BME280;7275;50.328;8.720;2022-10-31T12:40:26;99917.53;;;35.89;27.74
14383;BME280;7275;50.328;8.720;2022-10-31T12:43:08;99923.25;;;36.01;27.56
14383;BME280;7275;50.328;8.720;2022-10-31T12:45:49;99911.81;;;36.04;27.67
14383;BME280;7275;50.328;8.720;2022-10-31T12:48:48;99914.16;;;35.94;27.29
14383;BME280;7275;50.328;8.720;2022-10-31T12:51:28;99908.47;;;35.69;27.42
14383;BME280;7275;50.328;8.720;2022-10-31T12:54:15;99909.50;;;35.49;27.97
14383;BME280;7275;50.328;8.720;2022-10-31T12:56:55;99905.91;;;35.42;27.61
14383;BME280;7275;50.328;8.720;2022-10-31T12:59:29;99890.88;;;35.57;27.23
14383;BME280;7275;50.328;8.720;2022-10-31T13:02:02;99898.94;;;35.65;27.79
14383;BME280;7275;50.328;8.720;2022-10-31T13:04:42;99890.03;;;35.76;27.79
14383;BME280;7275;50.328;8.720;2022-10-31T13:07:14;99896.56;;;36.01;26.84
14383;BME280;7275;50.328;8.720;2022-10-31T13:09:49;99885.00;;;36.37;27.09
14383;BME280;7275;50.328;8.720;2022-10-31T13:12:20;99866.78;;;36.74;26.74
14383;BME280;7275;50.328;8.720;2022-10-31T13:14:51;99847.66;;;36.85;26.33
14383;BME280;7275;50.328;8.720;2022-10-31T13:17:27;99838.69;;;36.65;26.11
14383;BME280;7275;50.328;8.720;2022-10-31T13:20:13;99847.94;;;36.33;26.56
14383;BME280;7275;50.328;8.720;2022-10-31T13:22:44;99847.84;;;36.02;26.57
14383;BME280;7275;50.328;8.720;2022-10-31T13:25:15;99839.22;;;35.72;26.73